sensor_id;sensor_type;location;lat;lon;timestamp;P1;durP1;ratioP1;P2;durP2;ratioP2
28724;SDS011;43472;48.980;9.646;2022-08-01T00:04:31;5.90;;;3.17;;
28724;SDS011;43472;48.980;9.646;2022-08-01T00:09:32;5.15;;;3.10;;
28724;SDS011;43472;48.980;9.646;2022-08-01T00:14:36;3.45;;;2.22;;
28724;SDS011;43472;48.980;9.646;2022-08-01T00:19:38;4.03;;;2.15;;
28724;SDS011;43472;48.980;9.646;2022-08-01T00:24:39;8.10;;;5.32;;
28724;SDS011;43472;48.980;9.646;2022-08-01T00:29:41;18.60;;;7.65;;
28724;SDS011;43472;48.980;9.646;2022-08-01T00:35:03;3.60;;;2.40;;
28724;SDS011;43472;48.980;9.646;2022-08-01T00:40:06;6.65;;;2.25;;
28724;SDS011;43472;48.980;9.646;2022-08-01T00:45:08;3.65;;;2.38;;
28724;SDS011;43472;48.980;9.646;2022-08-01T00:50:11;4.57;;;2.22;;
28724;SDS011;43472;48.980;9.646;2022-08-01T00:55:13;4.30;;;2.75;;
28724;SDS011;43472;48.980;9.646;2022-08-01T01:00:15;7.50;;;2.67;;
28724;SDS011;43472;48.980;9.646;2022-08-01T01:05:17;5.07;;;2.75;;
28724;SDS011;43472;48.980;9.646;2022-08-01T01:15:39;6.63;;;4.57;;
28724;SDS011;43472;48.980;9.646;2022-08-01T01:20:43;4.25;;;3.33;;
28724;SDS011;43472;48.980;9.646;2022-08-01T01:31:18;4.18;;;2.55;;
28724;SDS011;43472;48.980;9.646;2022-08-01T01:36:22;3.47;;;3.00;;
28724;SDS011;43472;48.980;9.646;2022-08-01T01:52:18;10.02;;;6.03;;
28724;SDS011;43472;48.980;9.646;2022-08-01T01:57:21;6.72;;;3.92;;
28724;SDS011;43472;48.980;9.646;2022-08-01T02:02:24;5.05;;;3.47;;
28724;SDS011;43472;48.980;9.646;2022-08-01T02:07:27;22.67;;;10.73;;
28724;SDS011;43472;48.980;9.646;2022-08-01T02:12:32;3.85;;;2.80;;
28724;SDS011;43472;48.980;9.646;2022-08-01T02:17:37;10.25;;;4.97;;
28724;SDS011;43472;48.980;9.646;2022-08-01T02:22:53;9.02;;;5.97;;
28724;SDS011;43472;48.980;9.646;2022-08-01T02:28:06;6.20;;;4.07;;
28724;SDS011;43472;48.980;9.646;2022-08-01T02:33:18;3.70;;;2.78;;
28724;SDS011;43472;48.980;9.646;2022-08-01T02:38:27;9.07;;;5.72;;
28724;SDS011;43472;48.980;9.646;2022-08-01T02:43:32;7.85;;;4.78;;
28724;SDS011;43472;48.980;9.646;2022-08-01T02:48:37;5.18;;;3.60;;
28724;SDS011;43472;48.980;9.646;2022-08-01T02:53:40;7.78;;;3.83;;
28724;SDS011;43472;48.980;9.646;2022-08-01T02:58:45;8.10;;;4.07;;
28724;SDS011;43472;48.980;9.646;2022-08-01T03:03:53;5.97;;;3.83;;
28724;SDS011;43472;48.980;9.646;2022-08-01T03:08:55;5.53;;;4.03;;
28724;SDS011;43472;48.980;9.646;2022-08-01T03:13:59;5.28;;;4.20;;
28724;SDS011;43472;48.980;9.646;2022-08-01T03:19:03;9.63;;;4.25;;
28724;SDS011;43472;48.980;9.646;2022-08-01T03:24:07;26.92;;;12.80;;
28724;SDS011;43472;48.980;9.646;2022-08-01T03:29:12;27.02;;;11.02;;
28724;SDS011;43472;48.980;9.646;2022-08-01T03:34:18;14.82;;;8.07;;
28724;SDS011;43472;48.980;9.646;2022-08-01T03:39:22;7.28;;;4.43;;
28724;SDS011;43472;48.980;9.646;2022-08-01T03:44:29;6.47;;;4.25;;
28724;SDS011;43472;48.980;9.646;2022-08-01T03:49:43;10.40;;;7.00;;
28724;SDS011;43472;48.980;9.646;2022-08-01T03:54:49;13.48;;;6.50;;
28724;SDS011;43472;48.980;9.646;2022-08-01T03:59:55;6.18;;;4.25;;
28724;SDS011;43472;48.980;9.646;2022-08-01T04:04:58;5.53;;;4.15;;
28724;SDS011;43472;48.980;9.646;2022-08-01T04:10:01;4.75;;;3.30;;
28724;SDS011;43472;48.980;9.646;2022-08-01T04:15:04;7.13;;;5.43;;
28724;SDS011;43472;48.980;9.646;2022-08-01T04:20:06;7.35;;;5.63;;
28724;SDS011;43472;48.980;9.646;2022-08-01T04:25:14;28.63;;;13.30;;
28724;SDS011;43472;48.980;9.646;2022-08-01T04:30:26;24.15;;;9.50;;
28724;SDS011;43472;48.980;9.646;2022-08-01T04:35:31;16.47;;;8.00;;
28724;SDS011;43472;48.980;9.646;2022-08-01T04:40:54;14.20;;;6.55;;
28724;SDS011;43472;48.980;9.646;2022-08-01T04:45:56;14.70;;;6.65;;
28724;SDS011;43472;48.980;9.646;2022-08-01T04:51:00;6.53;;;4.32;;
28724;SDS011;43472;48.980;9.646;2022-08-01T04:56:02;6.50;;;4.22;;
28724;SDS011;43472;48.980;9.646;2022-08-01T05:01:07;8.80;;;5.82;;
28724;SDS011;43472;48.980;9.646;2022-08-01T05:06:12;10.75;;;6.60;;
28724;SDS011;43472;48.980;9.646;2022-08-01T05:11:23;19.40;;;13.38;;
28724;SDS011;43472;48.980;9.646;2022-08-01T05:16:25;9.63;;;6.07;;
28724;SDS011;43472;48.980;9.646;2022-08-01T05:21:27;7.03;;;4.40;;
28724;SDS011;43472;48.980;9.646;2022-08-01T05:26:29;6.72;;;4.95;;
28724;SDS011;43472;48.980;9.646;2022-08-01T05:31:32;6.90;;;4.70;;
28724;SDS011;43472;48.980;9.646;2022-08-01T05:36:35;6.50;;;5.07;;
28724;SDS011;43472;48.980;9.646;2022-08-01T05:41:41;7.95;;;5.65;;
28724;SDS011;43472;48.980;9.646;2022-08-01T05:46:53;5.93;;;4.18;;
28724;SDS011;43472;48.980;9.646;2022-08-01T05:51:55;11.77;;;6.45;;
28724;SDS011;43472;48.980;9.646;2022-08-01T05:56:57;7.63;;;4.13;;
28724;SDS011;43472;48.980;9.646;2022-08-01T06:02:02;7.70;;;4.45;;
28724;SDS011;43472;48.980;9.646;2022-08-01T06:07:08;7.93;;;5.35;;
28724;SDS011;43472;48.980;9.646;2022-08-01T06:12:09;6.20;;;4.50;;
28724;SDS011;43472;48.980;9.646;2022-08-01T06:17:11;7.90;;;4.22;;
28724;SDS011;43472;48.980;9.646;2022-08-01T06:22:13;10.40;;;4.50;;
28724;SDS011;43472;48.980;9.646;2022-08-01T06:27:25;6.55;;;4.10;;
28724;SDS011;43472;48.980;9.646;2022-08-01T06:32:27;7.78;;;3.65;;
28724;SDS011;43472;48.980;9.646;2022-08-01T06:37:31;5.68;;;2.72;;
28724;SDS011;43472;48.980;9.646;2022-08-01T06:42:33;7.18;;;3.65;;
28724;SDS011;43472;48.980;9.646;2022-08-01T06:47:39;2.33;;;1.95;;
28724;SDS011;43472;48.980;9.646;2022-08-01T06:52:41;4.00;;;2.53;;
28724;SDS011;43472;48.980;9.646;2022-08-01T06:58:01;2.25;;;1.95;;
28724;SDS011;43472;48.980;9.646;2022-08-01T07:03:03;2.83;;;2.05;;
28724;SDS011;43472;48.980;9.646;2022-08-01T07:08:05;4.03;;;2.35;;
28724;SDS011;43472;48.980;9.646;2022-08-01T07:13:07;4.38;;;2.40;;
28724;SDS011;43472;48.980;9.646;2022-08-01T07:18:12;4.38;;;2.25;;
28724;SDS011;43472;48.980;9.646;2022-08-01T07:23:14;3.90;;;2.30;;
28724;SDS011;43472;48.980;9.646;2022-08-01T07:28:16;8.50;;;2.30;;
28724;SDS011;43472;48.980;9.646;2022-08-01T07:33:23;5.38;;;2.08;;
28724;SDS011;43472;48.980;9.646;2022-08-01T07:38:25;3.08;;;2.25;;
28724;SDS011;43472;48.980;9.646;2022-08-01T07:43:30;5.18;;;1.98;;
28724;SDS011;43472;48.980;9.646;2022-08-01T07:48:32;7.43;;;1.98;;
28724;SDS011;43472;48.980;9.646;2022-08-01T07:53:34;2.72;;;1.73;;
28724;SDS011;43472;48.980;9.646;2022-08-01T07:58:36;2.95;;;2.00;;
28724;SDS011;43472;48.980;9.646;2022-08-01T08:03:38;2.78;;;1.70;;
28724;SDS011;43472;48.980;9.646;2022-08-01T08:08:44;2.08;;;1.52;;
28724;SDS011;43472;48.980;9.646;2022-08-01T08:13:46;2.13;;;1.50;;
28724;SDS011;43472;48.980;9.646;2022-08-01T08:18:48;2.08;;;1.50;;
28724;SDS011;43472;48.980;9.646;2022-08-01T08:23:50;2.47;;;1.52;;
28724;SDS011;43472;48.980;9.646;2022-08-01T08:29:12;2.65;;;1.20;;
28724;SDS011;43472;48.980;9.646;2022-08-01T08:34:15;6.50;;;1.80;;
28724;SDS011;43472;48.980;9.646;2022-08-01T08:39:17;2.03;;;1.70;;
28724;SDS011;43472;48.980;9.646;2022-08-01T08:44:20;2.78;;;1.50;;
28724;SDS011;43472;48.980;9.646;2022-08-01T08:49:23;2.00;;;1.70;;
28724;SDS011;43472;48.980;9.646;2022-08-01T08:54:44;2.83;;;1.40;;
28724;SDS011;43472;48.980;9.646;2022-08-01T08:59:50;2.90;;;1.65;;
28724;SDS011;43472;48.980;9.646;2022-08-01T09:04:53;3.15;;;2.03;;
28724;SDS011;43472;48.980;9.646;2022-08-01T09:10:04;2.45;;;1.70;;
28724;SDS011;43472;48.980;9.646;2022-08-01T09:15:07;1.50;;;1.35;;
28724;SDS011;43472;48.980;9.646;2022-08-01T09:20:09;1.98;;;1.65;;
28724;SDS011;43472;48.980;9.646;2022-08-01T09:25:24;1.83;;;1.27;;
28724;SDS011;43472;48.980;9.646;2022-08-01T09:30:30;4.78;;;1.63;;
28724;SDS011;43472;48.980;9.646;2022-08-01T09:35:40;1.70;;;1.38;;
28724;SDS011;43472;48.980;9.646;2022-08-01T09:40:49;2.60;;;1.42;;
28724;SDS011;43472;48.980;9.646;2022-08-01T09:46:00;2.53;;;1.45;;
28724;SDS011;43472;48.980;9.646;2022-08-01T09:51:13;2.65;;;1.25;;
28724;SDS011;43472;48.980;9.646;2022-08-01T09:56:50;3.72;;;1.60;;
28724;SDS011;43472;48.980;9.646;2022-08-01T10:01:52;3.78;;;1.40;;
28724;SDS011;43472;48.980;9.646;2022-08-01T10:07:03;2.47;;;1.38;;
28724;SDS011;43472;48.980;9.646;2022-08-01T10:12:08;1.90;;;1.50;;
28724;SDS011;43472;48.980;9.646;2022-08-01T10:17:25;2.95;;;1.40;;
28724;SDS011;43472;48.980;9.646;2022-08-01T10:22:47;5.97;;;1.40;;
28724;SDS011;43472;48.980;9.646;2022-08-01T10:27:55;1.75;;;1.20;;
28724;SDS011;43472;48.980;9.646;2022-08-01T10:33:01;2.13;;;1.27;;
28724;SDS011;43472;48.980;9.646;2022-08-01T10:38:08;3.30;;;1.30;;
28724;SDS011;43472;48.980;9.646;2022-08-01T10:43:24;2.33;;;1.55;;
28724;SDS011;43472;48.980;9.646;2022-08-01T10:48:30;1.77;;;1.20;;
28724;SDS011;43472;48.980;9.646;2022-08-01T10:53:35;3.03;;;1.35;;
28724;SDS011;43472;48.980;9.646;2022-08-01T10:58:43;3.03;;;1.38;;
28724;SDS011;43472;48.980;9.646;2022-08-01T11:09:27;4.03;;;1.52;;
28724;SDS011;43472;48.980;9.646;2022-08-01T11:20:07;1.88;;;1.40;;
28724;SDS011;43472;48.980;9.646;2022-08-01T11:25:19;2.28;;;1.00;;
28724;SDS011;43472;48.980;9.646;2022-08-01T11:31:24;2.15;;;1.30;;
28724;SDS011;43472;48.980;9.646;2022-08-01T11:36:27;1.63;;;1.10;;
28724;SDS011;43472;48.980;9.646;2022-08-01T11:41:49;1.85;;;1.00;;
28724;SDS011;43472;48.980;9.646;2022-08-01T11:47:04;1.65;;;1.30;;
28724;SDS011;43472;48.980;9.646;2022-08-01T11:52:29;2.65;;;0.90;;
28724;SDS011;43472;48.980;9.646;2022-08-01T11:57:34;3.83;;;1.27;;
28724;SDS011;43472;48.980;9.646;2022-08-01T12:02:39;2.63;;;1.10;;
28724;SDS011;43472;48.980;9.646;2022-08-01T12:07:42;0.98;;;0.85;;
28724;SDS011;43472;48.980;9.646;2022-08-01T12:12:59;1.50;;;0.80;;
28724;SDS011;43472;48.980;9.646;2022-08-01T12:18:03;1.77;;;1.15;;
28724;SDS011;43472;48.980;9.646;2022-08-01T12:23:07;1.50;;;0.98;;
28724;SDS011;43472;48.980;9.646;2022-08-01T12:28:11;3.03;;;1.27;;
28724;SDS011;43472;48.980;9.646;2022-08-01T12:33:19;1.40;;;0.90;;
28724;SDS011;43472;48.980;9.646;2022-08-01T12:38:26;1.40;;;1.30;;
28724;SDS011;43472;48.980;9.646;2022-08-01T12:43:29;1.63;;;0.88;;
28724;SDS011;43472;48.980;9.646;2022-08-01T12:48:32;3.70;;;1.00;;
28724;SDS011;43472;48.980;9.646;2022-08-01T12:53:34;2.97;;;0.93;;
28724;SDS011;43472;48.980;9.646;2022-08-01T12:58:41;4.68;;;1.23;;
28724;SDS011;43472;48.980;9.646;2022-08-01T13:03:56;1.77;;;1.20;;
28724;SDS011;43472;48.980;9.646;2022-08-01T13:09:06;0.93;;;0.90;;
28724;SDS011;43472;48.980;9.646;2022-08-01T13:14:27;1.00;;;1.00;;
28724;SDS011;43472;48.980;9.646;2022-08-01T13:19:45;1.48;;;1.08;;
28724;SDS011;43472;48.980;9.646;2022-08-01T13:24:56;1.63;;;1.10;;
28724;SDS011;43472;48.980;9.646;2022-08-01T13:30:18;1.45;;;1.13;;
28724;SDS011;43472;48.980;9.646;2022-08-01T13:35:20;1.67;;;1.05;;
28724;SDS011;43472;48.980;9.646;2022-08-01T13:40:23;3.20;;;0.95;;
28724;SDS011;43472;48.980;9.646;2022-08-01T13:45:27;1.17;;;0.90;;
28724;SDS011;43472;48.980;9.646;2022-08-01T13:50:30;2.42;;;1.23;;
28724;SDS011;43472;48.980;9.646;2022-08-01T13:55:40;0.93;;;0.93;;
28724;SDS011;43472;48.980;9.646;2022-08-01T14:00:42;7.27;;;1.10;;
28724;SDS011;43472;48.980;9.646;2022-08-01T14:05:44;5.03;;;1.00;;
28724;SDS011;43472;48.980;9.646;2022-08-01T14:10:50;2.17;;;1.38;;
28724;SDS011;43472;48.980;9.646;2022-08-01T14:16:13;3.40;;;1.15;;
28724;SDS011;43472;48.980;9.646;2022-08-01T14:21:15;2.30;;;1.08;;
28724;SDS011;43472;48.980;9.646;2022-08-01T14:26:17;2.33;;;1.00;;
28724;SDS011;43472;48.980;9.646;2022-08-01T14:31:21;2.58;;;1.30;;
28724;SDS011;43472;48.980;9.646;2022-08-01T14:36:34;1.42;;;1.30;;
28724;SDS011;43472;48.980;9.646;2022-08-01T14:41:39;7.32;;;1.27;;
28724;SDS011;43472;48.980;9.646;2022-08-01T14:46:48;1.70;;;1.30;;
28724;SDS011;43472;48.980;9.646;2022-08-01T14:51:58;4.65;;;1.42;;
28724;SDS011;43472;48.980;9.646;2022-08-01T14:57:01;2.47;;;1.52;;
28724;SDS011;43472;48.980;9.646;2022-08-01T15:02:03;3.25;;;1.30;;
28724;SDS011;43472;48.980;9.646;2022-08-01T15:07:05;3.45;;;1.48;;
28724;SDS011;43472;48.980;9.646;2022-08-01T15:12:08;1.25;;;1.08;;
28724;SDS011;43472;48.980;9.646;2022-08-01T15:17:11;3.17;;;1.80;;
28724;SDS011;43472;48.980;9.646;2022-08-01T15:22:13;3.40;;;1.45;;
28724;SDS011;43472;48.980;9.646;2022-08-01T15:27:15;2.70;;;1.33;;
28724;SDS011;43472;48.980;9.646;2022-08-01T15:32:17;1.98;;;1.35;;
28724;SDS011;43472;48.980;9.646;2022-08-01T15:37:25;4.65;;;1.40;;
28724;SDS011;43472;48.980;9.646;2022-08-01T15:42:27;3.08;;;1.40;;
28724;SDS011;43472;48.980;9.646;2022-08-01T15:47:29;3.63;;;1.30;;
28724;SDS011;43472;48.980;9.646;2022-08-01T15:52:31;1.58;;;1.13;;
28724;SDS011;43472;48.980;9.646;2022-08-01T15:57:33;2.40;;;1.27;;
28724;SDS011;43472;48.980;9.646;2022-08-01T16:02:35;2.50;;;1.20;;
28724;SDS011;43472;48.980;9.646;2022-08-01T16:07:36;1.73;;;1.30;;
28724;SDS011;43472;48.980;9.646;2022-08-01T16:12:59;4.10;;;1.30;;
28724;SDS011;43472;48.980;9.646;2022-08-01T16:18:08;1.52;;;1.20;;
28724;SDS011;43472;48.980;9.646;2022-08-01T16:23:25;3.08;;;1.40;;
28724;SDS011;43472;48.980;9.646;2022-08-01T16:28:27;1.63;;;0.93;;
28724;SDS011;43472;48.980;9.646;2022-08-01T16:33:29;1.75;;;1.00;;
28724;SDS011;43472;48.980;9.646;2022-08-01T16:38:54;1.70;;;1.20;;
28724;SDS011;43472;48.980;9.646;2022-08-01T16:43:56;5.65;;;3.13;;
28724;SDS011;43472;48.980;9.646;2022-08-01T16:49:01;3.58;;;1.63;;
28724;SDS011;43472;48.980;9.646;2022-08-01T16:54:04;3.00;;;1.63;;
28724;SDS011;43472;48.980;9.646;2022-08-01T16:59:25;1.58;;;1.48;;
28724;SDS011;43472;48.980;9.646;2022-08-01T17:04:28;3.17;;;1.48;;
28724;SDS011;43472;48.980;9.646;2022-08-01T17:09:31;2.17;;;1.67;;
28724;SDS011;43472;48.980;9.646;2022-08-01T17:14:32;1.63;;;1.17;;
28724;SDS011;43472;48.980;9.646;2022-08-01T17:19:34;2.50;;;1.40;;
28724;SDS011;43472;48.980;9.646;2022-08-01T17:24:36;4.43;;;1.30;;
28724;SDS011;43472;48.980;9.646;2022-08-01T17:29:38;1.08;;;1.00;;
28724;SDS011;43472;48.980;9.646;2022-08-01T17:34:44;1.40;;;1.27;;
28724;SDS011;43472;48.980;9.646;2022-08-01T17:39:46;1.17;;;1.10;;
28724;SDS011;43472;48.980;9.646;2022-08-01T17:44:48;5.88;;;1.17;;
28724;SDS011;43472;48.980;9.646;2022-08-01T17:49:54;2.60;;;1.17;;
28724;SDS011;43472;48.980;9.646;2022-08-01T17:54:57;1.15;;;1.05;;
28724;SDS011;43472;48.980;9.646;2022-08-01T17:59:59;2.35;;;1.00;;
28724;SDS011;43472;48.980;9.646;2022-08-01T18:05:01;1.80;;;0.95;;
28724;SDS011;43472;48.980;9.646;2022-08-01T18:10:09;3.47;;;1.25;;
28724;SDS011;43472;48.980;9.646;2022-08-01T18:15:12;1.23;;;1.05;;
28724;SDS011;43472;48.980;9.646;2022-08-01T18:20:15;1.20;;;0.80;;
28724;SDS011;43472;48.980;9.646;2022-08-01T18:25:17;1.17;;;1.02;;
28724;SDS011;43472;48.980;9.646;2022-08-01T18:30:20;5.50;;;0.85;;
28724;SDS011;43472;48.980;9.646;2022-08-01T18:35:32;3.22;;;1.00;;
28724;SDS011;43472;48.980;9.646;2022-08-01T18:40:52;2.90;;;0.70;;
28724;SDS011;43472;48.980;9.646;2022-08-01T18:45:54;2.83;;;1.02;;
28724;SDS011;43472;48.980;9.646;2022-08-01T18:51:02;1.05;;;0.88;;
28724;SDS011;43472;48.980;9.646;2022-08-01T18:56:09;3.45;;;0.82;;
28724;SDS011;43472;48.980;9.646;2022-08-01T19:01:14;1.00;;;0.90;;
28724;SDS011;43472;48.980;9.646;2022-08-01T19:06:19;3.22;;;0.85;;
28724;SDS011;43472;48.980;9.646;2022-08-01T19:11:21;1.48;;;1.02;;
28724;SDS011;43472;48.980;9.646;2022-08-01T19:16:24;1.15;;;0.68;;
28724;SDS011;43472;48.980;9.646;2022-08-01T19:27:31;4.45;;;0.80;;
28724;SDS011;43472;48.980;9.646;2022-08-01T19:32:37;2.90;;;0.80;;
28724;SDS011;43472;48.980;9.646;2022-08-01T19:37:40;1.10;;;0.85;;
28724;SDS011;43472;48.980;9.646;2022-08-01T19:42:47;4.50;;;0.90;;
28724;SDS011;43472;48.980;9.646;2022-08-01T19:47:49;1.67;;;0.90;;
28724;SDS011;43472;48.980;9.646;2022-08-01T19:52:57;2.70;;;1.13;;
28724;SDS011;43472;48.980;9.646;2022-08-01T19:58:02;1.48;;;0.90;;
28724;SDS011;43472;48.980;9.646;2022-08-01T20:03:26;1.27;;;0.80;;
28724;SDS011;43472;48.980;9.646;2022-08-01T20:08:32;2.97;;;1.85;;
28724;SDS011;43472;48.980;9.646;2022-08-01T20:13:35;5.85;;;1.95;;
28724;SDS011;43472;48.980;9.646;2022-08-01T20:18:42;8.80;;;1.90;;
28724;SDS011;43472;48.980;9.646;2022-08-01T20:23:46;4.70;;;1.90;;
28724;SDS011;43472;48.980;9.646;2022-08-01T20:28:51;4.05;;;1.60;;
28724;SDS011;43472;48.980;9.646;2022-08-01T20:33:54;2.90;;;1.63;;
28724;SDS011;43472;48.980;9.646;2022-08-01T20:38:56;4.78;;;1.20;;
28724;SDS011;43472;48.980;9.646;2022-08-01T20:43:59;4.13;;;1.38;;
28724;SDS011;43472;48.980;9.646;2022-08-01T20:49:00;5.55;;;1.42;;
28724;SDS011;43472;48.980;9.646;2022-08-01T20:54:03;2.20;;;1.20;;
28724;SDS011;43472;48.980;9.646;2022-08-01T20:59:17;6.68;;;4.20;;
28724;SDS011;43472;48.980;9.646;2022-08-01T21:09:52;2.88;;;1.10;;
28724;SDS011;43472;48.980;9.646;2022-08-01T21:15:04;5.63;;;2.35;;
28724;SDS011;43472;48.980;9.646;2022-08-01T21:20:07;2.30;;;1.40;;
28724;SDS011;43472;48.980;9.646;2022-08-01T21:25:12;1.77;;;1.00;;
28724;SDS011;43472;48.980;9.646;2022-08-01T21:30:23;1.88;;;1.05;;
28724;SDS011;43472;48.980;9.646;2022-08-01T21:35:25;3.38;;;1.60;;
28724;SDS011;43472;48.980;9.646;2022-08-01T21:40:28;2.13;;;1.13;;
28724;SDS011;43472;48.980;9.646;2022-08-01T21:45:32;2.33;;;1.35;;
28724;SDS011;43472;48.980;9.646;2022-08-01T21:50:38;1.88;;;1.10;;
28724;SDS011;43472;48.980;9.646;2022-08-01T21:55:47;3.92;;;1.10;;
28724;SDS011;43472;48.980;9.646;2022-08-01T22:01:16;4.65;;;1.30;;
28724;SDS011;43472;48.980;9.646;2022-08-01T22:06:24;2.97;;;1.15;;
28724;SDS011;43472;48.980;9.646;2022-08-01T22:11:32;9.57;;;7.63;;
28724;SDS011;43472;48.980;9.646;2022-08-01T22:16:37;2.13;;;1.70;;
28724;SDS011;43472;48.980;9.646;2022-08-01T22:21:40;1.40;;;1.30;;
28724;SDS011;43472;48.980;9.646;2022-08-01T22:26:46;3.35;;;1.23;;
28724;SDS011;43472;48.980;9.646;2022-08-01T22:31:56;2.75;;;1.23;;
28724;SDS011;43472;48.980;9.646;2022-08-01T22:37:18;4.78;;;1.00;;
28724;SDS011;43472;48.980;9.646;2022-08-01T22:42:41;2.50;;;1.20;;
28724;SDS011;43472;48.980;9.646;2022-08-01T22:58:24;1.70;;;0.90;;
28724;SDS011;43472;48.980;9.646;2022-08-01T23:03:34;2.53;;;1.08;;
28724;SDS011;43472;48.980;9.646;2022-08-01T23:08:40;4.00;;;1.10;;
28724;SDS011;43472;48.980;9.646;2022-08-01T23:13:43;1.27;;;0.90;;
28724;SDS011;43472;48.980;9.646;2022-08-01T23:18:47;0.95;;;0.88;;
28724;SDS011;43472;48.980;9.646;2022-08-01T23:23:49;5.07;;;1.05;;
28724;SDS011;43472;48.980;9.646;2022-08-01T23:28:52;3.03;;;1.13;;
28724;SDS011;43472;48.980;9.646;2022-08-01T23:34:06;3.33;;;1.17;;
28724;SDS011;43472;48.980;9.646;2022-08-01T23:39:08;1.17;;;0.90;;
28724;SDS011;43472;48.980;9.646;2022-08-01T23:44:11;4.63;;;0.98;;
28724;SDS011;43472;48.980;9.646;2022-08-01T23:49:13;2.45;;;0.98;;
28724;SDS011;43472;48.980;9.646;2022-08-01T23:54:18;2.00;;;1.00;;
28724;SDS011;43472;48.980;9.646;2022-08-01T23:59:26;1.40;;;1.17;;
